EDDPEDDS

Guest
Details From EDDP - Leipzig-halle
To EDDS - Stuttgart
Flight Number -
Tags Generated
Created
Modified
Stats Distance 201 nm / 371 km
Max Altitude 0 ft / 0 m
Waypoints 2
Social Downloads 0
Likes 0
Share VATSIM

Download

Looking for another format? Having issues loading an existing format? Contact us
Advertisement - Login to hide

Notes

Generated

Route

EDDP EDDS

ID Type Via Altitude Latitude Longitude Leg Dist Tot Dist Heading (true) Name
O EDDP APT - 0 ft / 0 m 51.41160˚ 12.20459˚ - 0 nm - -
O EDDS APT - 0 ft / 0 m 48.68573˚ 9.20013˚ 200 nm 200 nm 216° / 214° -

Altitude Profile

Advertisement - Login to hide

Weather


0- 5 10 15 20 25 30 35+ Temperature / ° C

Clouds and Precipitation
Forecast for 2017-12-12 12:00 UTC. Updated 2 hours ago

Ground ~20,000 ft ~40,000 ft Winds

EDDP

Details ICAO EDDP (LEJ)
Name Leipzig-Halle
Region Germany - Civil
Timezone Europe/Berlin (UTC+1.0)
Stats Elevation 464 ft / 141 m (AMSL)
Location 51.422631° 12.236042°
Runways 2
Magnetic Variation 3.395° E

METAR

EDDP 120820Z 24024KT 9999 SCT026 BKN042 BKN060 04/M01 Q0998 NOSIG

Decode

TAF

TAF EDDP 120500Z 1206/1306 20015G30KT 9999 BKN040 BECMG 1206/1208 25020G35KT TEMPO 1207/1212 24025G45KT BECMG 1217/1219 23012KT

Decode

Departure Runways

ID Width Length Bearing (true) Bearing (mag) Surface Threshold Offset Overrun Length
08L 148 ft / 45 m 11,776 ft / 3,589 m 85.70° 82.31° Concrete 0 ft / 0 m 0 ft / 0 m
08R 197 ft / 60 m 11,777 ft / 3,590 m 85.68° 82.29° Concrete 0 ft / 0 m 0 ft / 0 m
26L 197 ft / 60 m 11,777 ft / 3,590 m 265.72° 262.33° Concrete 0 ft / 0 m 0 ft / 0 m
26R 148 ft / 45 m 11,776 ft / 3,589 m 265.74° 262.35° Concrete 0 ft / 0 m 0 ft / 0 m

EDDS

Details ICAO EDDS (STR)
Name Stuttgart
Region Germany - Civil
Timezone Europe/Berlin (UTC+1.0)
Stats Elevation 1,273 ft / 388 m (AMSL)
Location 48.689876° 9.221962°
Runways 1
Magnetic Variation 2.522° E

METAR

EDDS 120820Z 23004KT 190V280 9999 FEW025 BKN033 03/M02 Q1007 NOSIG

Decode

TAF

TAF EDDS 120500Z 1206/1306 23015G25KT 9999 SCT035 TEMPO 1206/1210 26020G35KT BECMG 1209/1212 23011KT BECMG 1220/1223 VRB03KT

Decode

Destination Runways

ID Width Length Bearing (true) Bearing (mag) Surface Threshold Offset Overrun Length
07 148 ft / 45 m 10,950 ft / 3,337 m 73.96° 71.44° Concrete 981 ft / 299 m 157 ft / 48 m
25 148 ft / 45 m 10,950 ft / 3,337 m 253.99° 251.47° Concrete 0 ft / 0 m 157 ft / 48 m

Approach Navaids

Runway Type Ident Frequency Range Bearing (true) Bearing (mag) Slope Elevation
07 Localiser ISTE 110.90 MHz 18 nm / 33 km 73.99° 71.47° - 1,181 ft / 360 m (AMSL)
07 Glidescope ISTE 110.90 MHz 10 nm / 19 km 73.97° 71.45° 3.00° 1,267 ft / 386 m (AMSL)
07 DME ISTE 115.45 MHz 18 nm / 33 km - - - 1,332 ft / 406 m (AMSL)
25 Localiser ISTW 109.90 MHz 18 nm / 33 km 253.95° 251.42° - 1,267 ft / 386 m (AMSL)
25 Glidescope ISTW 109.90 MHz 10 nm / 19 km 253.97° 251.45° 3.00° 1,181 ft / 360 m (AMSL)
25 DME ISTW 115.45 MHz 18 nm / 33 km - - - 1,332 ft / 406 m (AMSL)

Popular Alternatives